Time;durP1;ratioP1;P1;durP2;ratioP2;P2;SDS_P1;SDS_P2;PMS_P1;PMS_P2;Temp;Humidity;BMP_temperature;BMP_pressure;BME280_temperature;BME280_humidity;BME280_pressure;Samples;Min_cycle;Max_cycle;Signal;HPM_P1;HPM_P2
2021/03/22 00:00:49;;;;;;;41.47;22.33;;;;;;;0.04;85.63;97485.47;1776304;80;20992;-71
2021/03/22 00:03:16;;;;;;;40.50;21.23;;;;;;;0.09;86.32;97484.30;1776199;80;21452;-72
2021/03/22 00:05:42;;;;;;;43.50;21.70;;;;;;;0.15;86.55;97488.70;1776105;80;21051;-72
2021/03/22 00:08:08;;;;;;;37.85;20.37;;;;;;;0.19;86.24;97494.41;1776106;80;21492;-72
2021/03/22 00:10:36;;;;;;;49.40;23.47;;;;;;;0.25;85.67;97496.14;1776135;80;21204;-72
2021/03/22 00:13:03;;;;;;;44.50;23.27;;;;;;;0.29;85.59;97486.67;1776067;80;21131;-72
2021/03/22 00:15:31;;;;;;;74.75;31.95;;;;;;;0.28;85.72;97493.05;1776083;80;21484;-72
2021/03/22 00:17:57;;;;;;;231.93;91.67;;;;;;;0.28;85.55;97492.52;1776002;80;21131;-72
2021/03/22 00:20:24;;;;;;;58.73;28.38;;;;;;;0.33;84.99;97493.69;1776087;80;21084;-72
2021/03/22 00:22:50;;;;;;;42.73;22.55;;;;;;;0.30;85.51;97493.63;1776054;80;21190;-72
2021/03/22 00:25:17;;;;;;;40.33;20.05;;;;;;;0.28;85.74;97501.85;1776015;80;21138;-72
2021/03/22 00:27:43;;;;;;;117.25;52.83;;;;;;;0.33;84.91;97496.34;1776034;80;21048;-72
2021/03/22 00:30:13;;;;;;;70.75;33.73;;;;;;;0.38;84.25;97495.97;1776066;80;21063;-72
2021/03/22 00:32:39;;;;;;;81.28;39.90;;;;;;;0.31;86.08;97494.44;1775908;80;21098;-72
2021/03/22 00:35:07;;;;;;;48.30;21.97;;;;;;;0.28;86.29;97497.05;1776060;80;21204;-72
2021/03/22 00:37:33;;;;;;;49.65;28.27;;;;;;;0.30;86.63;97500.81;1782566;80;21067;-72
2021/03/22 00:39:59;;;;;;;42.53;21.40;;;;;;;0.28;86.60;97499.70;1792643;79;21514;-72
2021/03/22 00:42:25;;;;;;;40.43;21.12;;;;;;;0.25;86.98;97500.95;1792699;80;21078;-72
2021/03/22 00:44:51;;;;;;;44.13;22.98;;;;;;;0.28;86.49;97495.71;1792658;79;21035;-72
2021/03/22 00:47:17;;;;;;;44.90;21.90;;;;;;;0.27;86.69;97496.23;1792636;80;21218;-72
2021/03/22 00:49:43;;;;;;;42.27;21.05;;;;;;;0.31;85.40;97495.25;1792551;79;21126;-72
2021/03/22 00:52:11;;;;;;;41.15;22.58;;;;;;;0.37;84.71;97496.20;1792615;80;21102;-72
2021/03/22 00:54:40;;;;;;;52.98;25.50;;;;;;;0.44;84.22;97498.26;1792660;79;21571;-73
2021/03/22 00:57:08;;;;;;;42.33;21.82;;;;;;;0.44;84.76;97500.92;1792757;80;21447;-72
2021/03/22 00:59:35;;;;;;;40.40;20.92;;;;;;;0.41;85.70;97502.69;1792866;79;21309;-72
2021/03/22 01:02:02;;;;;;;43.35;21.62;;;;;;;0.40;85.26;97500.55;1792598;80;21583;-72
2021/03/22 01:04:28;;;;;;;43.73;21.77;;;;;;;0.38;86.03;97502.63;1792753;79;21435;-72
2021/03/22 01:06:54;;;;;;;42.45;20.65;;;;;;;0.40;85.27;97501.87;1792705;80;21583;-72
2021/03/22 01:09:20;;;;;;;39.63;20.12;;;;;;;0.35;86.04;97500.44;1792690;79;21118;-72
2021/03/22 01:11:47;;;;;;;36.53;19.67;;;;;;;0.38;85.24;97505.82;1792627;80;21153;-72
2021/03/22 01:14:13;;;;;;;39.30;20.15;;;;;;;0.36;85.47;97501.24;1792589;79;21153;-72
2021/03/22 01:16:39;;;;;;;38.50;21.12;;;;;;;0.36;85.08;97501.24;1792618;80;21170;-72
2021/03/22 01:19:13;;;;;;;73.12;38.92;;;;;;;0.33;85.37;97502.48;1792551;79;21122;-72
2021/03/22 01:21:51;;;;;;;59.18;30.43;;;;;;;0.29;85.54;97500.00;1792771;80;21078;-73
2021/03/22 01:24:20;;;;;;;56.40;27.75;;;;;;;0.34;85.09;97504.11;1792913;79;22051;-72
2021/03/22 01:26:47;;;;;;;184.32;78.33;;;;;;;0.40;84.27;97511.20;1792677;80;21483;-72
2021/03/22 01:29:17;;;;;;;156.63;64.82;;;;;;;0.34;85.08;97514.77;1792628;79;21111;-72
2021/03/22 01:31:43;;;;;;;172.57;74.45;;;;;;;0.33;85.40;97517.15;1764551;80;21085;-72
2021/03/22 01:34:10;;;;;;;119.53;57.85;;;;;;;0.33;85.37;97517.67;1792741;79;21145;-73
2021/03/22 01:36:36;;;;;;;63.60;29.95;;;;;;;0.22;85.99;97517.41;1792635;80;21478;-72
2021/03/22 01:39:12;;;;;;;62.43;31.70;;;;;;;0.24;86.20;97519.31;1756535;80;21482;-72
2021/03/22 01:42:25;;;;;;;61.63;28.83;;;;;;;0.25;85.86;97522.80;1792680;80;21110;-71
2021/03/22 01:45:00;;;;;;;41.68;21.27;;;;;;;0.31;85.28;97527.75;1792630;79;21042;-72
2021/03/22 01:47:31;;;;;;;31.85;16.42;;;;;;;0.28;85.77;97526.36;1792632;80;21523;-71
2021/03/22 01:50:16;;;;;;;37.38;18.48;;;;;;;0.28;85.66;97529.84;1791463;79;21176;-72
2021/03/22 01:52:44;;;;;;;34.53;16.73;;;;;;;0.30;85.78;97539.45;1791998;80;21455;-72
2021/03/22 01:55:12;;;;;;;32.63;15.80;;;;;;;0.25;86.22;97536.12;1756732;80;21124;-72
2021/03/22 01:57:44;;;;;;;32.63;17.25;;;;;;;0.20;86.40;97540.81;1792565;80;21095;-72
2021/03/22 02:00:27;;;;;;;32.25;17.52;;;;;;;0.24;86.63;97539.30;1792749;79;21102;-72
2021/03/22 02:03:17;;;;;;;35.20;18.30;;;;;;;0.21;86.69;97535.77;1792675;80;22122;-72
2021/03/22 02:05:47;;;;;;;31.97;17.25;;;;;;;0.26;86.37;97531.92;1756781;80;21142;-72
2021/03/22 02:08:19;;;;;;;33.33;16.40;;;;;;;0.29;86.13;97538.64;1792714;80;21027;-72
2021/03/22 02:10:46;;;;;;;32.28;16.07;;;;;;;0.32;86.23;97540.03;1792682;79;21102;-72
2021/03/22 02:13:14;;;;;;;25.82;15.38;;;;;;;0.22;86.31;97533.39;1792627;80;21047;-72
2021/03/22 02:15:41;;;;;;;30.70;14.95;;;;;;;0.24;85.95;97535.30;1792751;79;21509;-71
2021/03/22 02:18:18;;;;;;;39.60;17.65;;;;;;;0.26;85.62;97527.11;1792603;80;21138;-72
2021/03/22 02:21:19;;;;;;;29.48;15.38;;;;;;;0.30;85.25;97531.46;1792085;79;21106;-72
2021/03/22 02:24:20;;;;;;;25.77;14.65;;;;;;;0.32;84.82;97536.03;1792784;80;21031;-71
2021/03/22 02:27:13;;;;;;;27.77;13.75;;;;;;;0.24;84.83;97537.97;1792824;80;21126;-72
2021/03/22 02:29:50;;;;;;;25.40;13.32;;;;;;;0.19;84.62;97546.37;1791671;79;21410;-72
2021/03/22 02:32:49;;;;;;;24.80;12.68;;;;;;;0.18;84.22;97546.89;1792719;80;21090;-72
2021/03/22 02:35:31;;;;;;;22.13;11.08;;;;;;;0.13;84.01;97548.59;1792989;79;21050;-73
2021/03/22 02:38:29;;;;;;;34.40;15.10;;;;;;;0.13;83.52;97549.92;1792624;80;21138;-73
2021/03/22 02:41:12;;;;;;;50.65;27.22;;;;;;;0.03;83.18;97557.11;1757178;80;21039;-72
2021/03/22 02:43:39;;;;;;;35.38;16.57;;;;;;;0.01;83.23;97558.38;1791707;80;22051;-73
2021/03/22 02:46:06;;;;;;;92.53;37.33;;;;;;;-0.13;83.27;97553.72;1792743;79;21074;-73
2021/03/22 02:48:32;;;;;;;69.58;31.80;;;;;;;-0.12;83.23;97559.33;1792825;80;21487;-73
2021/03/22 02:51:25;;;;;;;43.83;19.37;;;;;;;-0.16;83.20;97560.31;1792805;79;21094;-73
2021/03/22 02:54:24;;;;;;;39.05;17.50;;;;;;;-0.25;83.33;97569.63;1792855;80;21172;-71
2021/03/22 02:57:09;;;;;;;;;;;;;;;-0.24;83.28;97573.11;1795392;80;21204;-72
2021/03/22 02:59:40;;;;;;;30.95;11.22;;;;;;;-0.31;83.42;97576.64;1792301;78;20218;-71
2021/03/22 03:02:06;;;;;;;21.15;10.70;;;;;;;-0.34;83.56;97578.95;1792786;80;21109;-72
2021/03/22 03:04:35;;;;;;;20.75;9.33;;;;;;;-0.39;83.77;97582.78;1792749;79;21440;-72
2021/03/22 03:07:04;;;;;;;24.30;11.10;;;;;;;-0.40;83.58;97581.97;1792942;80;21508;-72
2021/03/22 03:09:34;;;;;;;29.77;11.53;;;;;;;-0.44;83.57;97587.94;1792689;79;21409;-72
2021/03/22 03:12:14;;;;;;;19.27;10.08;;;;;;;-0.43;83.51;97586.89;1792683;80;21519;-72
2021/03/22 03:14:42;;;;;;;23.30;10.82;;;;;;;-0.46;83.52;97586.02;1792755;79;21090;-71
2021/03/22 03:17:08;;;;;;;18.40;10.27;;;;;;;-0.42;83.26;97592.55;1793064;80;21506;-71
2021/03/22 03:19:34;;;;;;;18.70;10.65;;;;;;;-0.42;83.04;97585.89;1792820;79;21015;-71
2021/03/22 03:22:01;;;;;;;23.15;11.57;;;;;;;-0.44;83.20;97594.07;1792821;80;22046;-72
2021/03/22 03:24:27;;;;;;;22.80;11.35;;;;;;;-0.38;82.81;97602.52;1792773;79;21106;-71
2021/03/22 03:26:53;;;;;;;19.73;9.80;;;;;;;-0.40;82.83;97594.46;1792729;80;21137;-71
2021/03/22 03:29:20;;;;;;;20.80;10.68;;;;;;;-0.45;82.92;97595.62;1792787;79;21593;-71
2021/03/22 03:31:46;;;;;;;18.45;10.03;;;;;;;-0.45;82.80;97599.62;1792835;80;21161;-71
2021/03/22 03:34:12;;;;;;;19.20;9.90;;;;;;;-0.54;83.07;97600.94;1792733;79;22065;-71
2021/03/22 03:36:38;;;;;;;41.28;22.40;;;;;;;-0.53;83.00;97606.03;1792750;80;21161;-72
2021/03/22 03:39:05;;;;;;;56.05;27.20;;;;;;;-0.54;82.96;97610.25;1781085;80;21448;-71
2021/03/22 03:41:32;;;;;;;23.87;13.48;;;;;;;-0.52;82.84;97608.99;1776117;80;21106;-71
2021/03/22 03:43:58;;;;;;;33.35;13.90;;;;;;;-0.60;83.53;97607.45;1776089;80;21084;-72
2021/03/22 03:46:24;;;;;;;41.23;22.00;;;;;;;-0.61;83.29;97611.63;1776170;80;21282;-71
2021/03/22 03:48:50;;;;;;;42.95;23.42;;;;;;;-0.68;83.70;97611.71;1775971;80;21488;-72
2021/03/22 03:51:16;;;;;;;45.98;22.52;;;;;;;-0.64;83.39;97616.07;1776069;80;21138;-71
2021/03/22 03:53:42;;;;;;;21.85;11.15;;;;;;;-0.61;82.89;97614.30;1776064;80;21418;-71
2021/03/22 03:56:08;;;;;;;20.65;12.03;;;;;;;-0.66;83.24;97610.16;1776180;80;21091;-71
2021/03/22 03:58:34;;;;;;;28.05;17.25;;;;;;;-0.71;83.23;97615.31;1776066;80;21090;-71
2021/03/22 04:01:01;;;;;;;29.07;15.53;;;;;;;-0.69;82.86;97619.89;1775973;80;21114;-71
2021/03/22 04:03:33;;;;;;;13.15;8.18;;;;;;;-0.70;82.88;97616.94;1776124;80;21162;-71
2021/03/22 04:06:14;;;;;;;19.48;10.05;;;;;;;-0.72;82.70;97616.34;1776118;80;21538;-72
2021/03/22 04:08:44;;;;;;;20.37;9.95;;;;;;;-0.74;82.73;97623.22;1776162;80;21099;-72
2021/03/22 04:11:13;;;;;;;13.80;8.50;;;;;;;-0.78;82.88;97629.98;1776158;80;21980;-72
2021/03/22 04:13:39;;;;;;;20.25;9.85;;;;;;;-0.78;82.84;97633.16;1776129;80;26711;-72
2021/03/22 04:16:07;;;;;;;20.60;9.75;;;;;;;-0.82;82.69;97635.98;1776075;80;21103;-71
2021/03/22 04:18:35;;;;;;;15.15;8.10;;;;;;;-0.84;82.90;97635.38;1776239;80;21059;-71
2021/03/22 04:21:02;;;;;;;20.35;8.75;;;;;;;-0.85;82.79;97637.23;1776145;80;21425;-71
2021/03/22 04:23:28;;;;;;;18.77;7.70;;;;;;;-0.85;83.05;97638.56;1776147;80;21115;-71
2021/03/22 04:25:54;;;;;;;16.87;8.08;;;;;;;-0.90;82.73;97640.52;1775951;80;21059;-71
2021/03/22 04:28:20;;;;;;;17.30;8.73;;;;;;;-0.92;82.84;97653.23;1776027;80;21131;-71
2021/03/22 04:30:47;;;;;;;12.75;6.92;;;;;;;-0.93;82.92;97654.78;1776014;80;21154;-71
2021/03/22 04:33:13;;;;;;;17.40;8.08;;;;;;;-0.89;82.61;97655.97;1776033;80;21428;-71
2021/03/22 04:35:39;;;;;;;12.78;7.28;;;;;;;-0.93;82.52;97662.25;1776059;80;21496;-71
2021/03/22 04:38:05;;;;;;;17.82;7.80;;;;;;;-0.87;82.22;97661.36;1775862;80;21591;-71
2021/03/22 04:40:31;;;;;;;14.95;6.47;;;;;;;-0.87;81.99;97664.02;1776055;80;21043;-71
2021/03/22 04:42:57;;;;;;;17.05;7.33;;;;;;;-0.89;81.97;97667.42;1776019;80;21130;-71
2021/03/22 04:45:26;;;;;;;12.78;6.92;;;;;;;-0.82;81.87;97671.89;1776109;80;21122;-71
2021/03/22 04:47:53;;;;;;;11.22;6.67;;;;;;;-0.78;81.64;97665.91;1776015;80;22084;-72
2021/03/22 04:50:21;;;;;;;12.35;7.15;;;;;;;-0.71;81.60;97682.64;1775958;80;21110;-72
2021/03/22 04:52:47;;;;;;;11.05;7.03;;;;;;;-0.67;81.56;97679.05;1775982;80;21115;-72
2021/03/22 04:55:14;;;;;;;14.33;7.42;;;;;;;-0.72;81.01;97682.34;1776012;80;21028;-72
2021/03/22 04:57:40;;;;;;;14.65;7.28;;;;;;;-0.70;80.95;97677.62;1776053;80;21099;-72
2021/03/22 05:00:14;;;;;;;20.10;9.75;;;;;;;-0.72;80.93;97686.86;1775950;80;22016;-72
2021/03/22 05:02:40;;;;;;;13.48;7.45;;;;;;;-0.78;80.34;97689.04;1776003;80;21087;-71
2021/03/22 05:05:07;;;;;;;16.20;7.05;;;;;;;-0.80;80.47;97692.44;1775965;80;21095;-71
2021/03/22 05:07:33;;;;;;;14.10;7.15;;;;;;;-0.78;80.16;97697.02;1775982;80;21118;-72
2021/03/22 05:09:59;;;;;;;12.65;7.20;;;;;;;-0.82;80.26;97703.81;1775972;80;21078;-71
2021/03/22 05:12:25;;;;;;;20.62;9.45;;;;;;;-0.77;80.35;97704.81;1776021;80;21178;-71
2021/03/22 05:14:51;;;;;;;14.07;8.25;;;;;;;-0.79;80.46;97721.48;1775898;80;21035;-71
2021/03/22 05:17:17;;;;;;;20.20;7.35;;;;;;;-0.78;80.47;97724.96;1775994;80;21154;-71
2021/03/22 05:19:44;;;;;;;15.58;7.53;;;;;;;-0.75;80.61;97721.89;1775974;80;21106;-71
2021/03/22 05:22:10;;;;;;;13.95;7.67;;;;;;;-0.73;80.50;97726.47;1776064;80;21118;-71
2021/03/22 05:24:36;;;;;;;19.90;9.23;;;;;;;-0.81;80.56;97727.55;1775965;80;21187;-71
2021/03/22 05:27:03;;;;;;;17.85;8.85;;;;;;;-0.80;80.70;97729.69;1776040;80;21174;-71
2021/03/22 05:29:29;;;;;;;16.35;8.15;;;;;;;-0.75;80.63;97732.53;1776052;80;21444;-71
2021/03/22 05:31:55;;;;;;;17.73;10.55;;;;;;;-0.82;80.80;97729.09;1776009;80;21075;-71
2021/03/22 05:34:22;;;;;;;17.60;7.75;;;;;;;-0.79;80.55;97733.45;1776105;80;21531;-71
2021/03/22 05:36:48;;;;;;;22.27;9.58;;;;;;;-0.86;80.68;97733.48;1776038;80;22057;-71
2021/03/22 05:39:14;;;;;;;19.60;10.45;;;;;;;-0.84;80.63;97739.95;1784020;79;21056;-71
2021/03/22 05:41:49;;;;;;;13.40;7.60;;;;;;;-0.82;80.42;97741.06;1792752;80;21503;-71
2021/03/22 05:44:36;;;;;;;16.07;7.87;;;;;;;-0.75;80.24;97748.50;1792713;79;21471;-72
2021/03/22 05:47:27;;;;;;;18.00;8.80;;;;;;;-0.78;80.02;97744.91;1790819;78;21086;-72
2021/03/22 05:50:09;;;;;;;16.32;8.83;;;;;;;-0.70;79.88;97747.33;1792613;79;21181;-71
2021/03/22 05:53:10;;;;;;;15.43;8.28;;;;;;;-0.65;79.70;97745.66;1792603;80;21062;-72
2021/03/22 05:55:45;;;;;;;14.15;7.85;;;;;;;-0.52;79.78;97752.73;1791207;79;21145;-71
2021/03/22 05:58:39;;;;;;;18.02;6.95;;;;;;;-0.43;79.59;97757.27;1792402;80;21504;-72
2021/03/22 06:01:13;;;;;;;30.75;16.62;;;;;;;-0.52;79.06;97759.38;1792434;79;21074;-72
2021/03/22 06:03:46;;;;;;;34.15;20.05;;;;;;;-0.51;79.27;97760.20;1764565;80;21416;-71
2021/03/22 06:06:26;;;;;;;28.95;16.30;;;;;;;-0.52;78.86;97767.89;1792742;79;21035;-72
2021/03/22 06:08:57;;;;;;;15.10;9.30;;;;;;;-0.45;78.51;97771.33;1792776;80;21114;-73
2021/03/22 06:11:35;;;;;;;17.55;10.98;;;;;;;-0.49;78.02;97777.61;1792340;79;21530;-72
2021/03/22 06:14:19;;;;;;;17.67;7.62;;;;;;;-0.59;77.94;97773.28;1792989;80;21026;-72
2021/03/22 06:16:53;;;;;;;33.98;22.45;;;;;;;-0.49;77.69;97770.95;1792827;80;22054;-72
2021/03/22 06:19:20;;;;;;;35.58;24.43;;;;;;;-0.49;77.58;97780.27;1778278;79;21490;-72
2021/03/22 06:21:47;;;;;;;23.80;15.05;;;;;;;-0.46;77.44;97771.84;1792839;80;21170;-72
2021/03/22 06:24:24;;;;;;;19.42;9.78;;;;;;;-0.32;77.11;97774.72;1759215;79;21054;-72
2021/03/22 06:26:55;;;;;;;12.60;8.18;;;;;;;-0.25;76.89;97781.86;1792835;80;21082;-72
2021/03/22 06:29:38;;;;;;;20.12;8.45;;;;;;;-0.21;76.84;97774.53;1792741;79;22091;-71
2021/03/22 06:32:23;;;;;;;24.02;11.10;;;;;;;-0.35;76.05;97781.79;1792521;78;21105;-73
2021/03/22 06:35:02;;;;;;;13.22;6.67;;;;;;;-0.40;76.14;97787.48;1790780;79;21110;-71
2021/03/22 06:37:34;;;;;;;15.05;8.10;;;;;;;-0.52;76.22;97792.66;1792420;80;21118;-72
2021/03/22 06:40:29;;;;;;;16.27;9.08;;;;;;;-0.55;76.19;97794.42;1792633;79;21109;-71
2021/03/22 06:43:07;;;;;;;40.05;29.15;;;;;;;-0.69;76.69;97796.85;1792764;80;21205;-71
2021/03/22 06:45:43;;;;;;;47.23;29.55;;;;;;;-0.61;76.50;97803.25;1792753;79;21405;-73
2021/03/22 06:48:30;;;;;;;41.02;24.55;;;;;;;-0.59;75.88;97794.05;1792800;80;21496;-72
2021/03/22 06:51:08;;;;;;;161.77;89.45;;;;;;;-0.57;75.53;97801.81;1792845;79;21560;-71
2021/03/22 06:53:47;;;;;;;60.43;37.55;;;;;;;-0.38;75.93;97804.86;1791788;80;21130;-72
2021/03/22 06:56:39;;;;;;;30.27;18.85;;;;;;;-0.37;75.64;97807.01;1792918;79;21198;-71
2021/03/22 06:59:18;;;;;;;24.07;13.15;;;;;;;-0.36;75.97;97808.12;1788108;79;21150;-71
2021/03/22 07:01:46;;;;;;;23.87;16.10;;;;;;;-0.34;75.38;97819.39;1792786;80;21079;-72
2021/03/22 07:04:29;;;;;;;22.32;14.03;;;;;;;-0.26;75.82;97822.80;1792676;79;21034;-72
2021/03/22 07:07:19;;;;;;;17.42;10.48;;;;;;;-0.08;75.94;97824.23;1792793;80;21079;-73
2021/03/22 07:09:58;;;;;;;21.55;11.97;;;;;;;0.05;75.56;97824.64;1792687;79;21260;-73
2021/03/22 07:12:35;;;;;;;15.38;9.20;;;;;;;0.19;74.53;97830.17;1792729;80;21091;-71
2021/03/22 07:15:27;;;;;;;17.00;8.95;;;;;;;0.33;74.07;97825.53;1791582;79;21050;-71
2021/03/22 07:18:13;;;;;;;17.77;9.30;;;;;;;0.41;73.16;97841.24;1792719;80;21503;-71
2021/03/22 07:20:41;;;;;;;16.97;9.68;;;;;;;0.47;73.54;97840.38;1792812;79;21482;-71
2021/03/22 07:23:24;;;;;;;15.80;9.60;;;;;;;0.63;73.20;97841.14;1792709;80;21199;-72
2021/03/22 07:26:19;;;;;;;16.32;9.23;;;;;;;0.84;72.82;97852.71;1792723;79;21090;-73
2021/03/22 07:29:05;;;;;;;13.08;7.80;;;;;;;0.96;71.36;97848.00;1792662;80;21495;-72
2021/03/22 07:31:46;;;;;;;35.17;23.32;;;;;;;0.86;68.97;97853.03;1792868;80;21468;-72
2021/03/22 07:34:53;;;;;;;20.02;11.90;;;;;;;1.11;70.32;97862.60;1790673;79;21046;-73
2021/03/22 07:38:02;;;;;;;15.68;9.28;;;;;;;1.25;69.08;97862.43;1792725;80;21268;-72
2021/03/22 07:40:49;;;;;;;26.27;12.82;;;;;;;2.25;66.19;97862.17;1779660;80;21107;-72
2021/03/22 07:43:38;;;;;;;16.27;9.50;;;;;;;2.34;64.55;97863.17;1776212;80;21092;-72
2021/03/22 07:46:22;;;;;;;14.20;9.55;;;;;;;2.35;66.71;97862.13;1775629;80;21488;-72
2021/03/22 07:49:12;;;;;;;15.80;9.75;;;;;;;4.24;60.39;97853.68;1776071;80;21087;-71
2021/03/22 07:52:05;;;;;;;24.70;12.80;;;;;;;5.13;55.91;97852.88;1776214;80;22050;-72
2021/03/22 07:54:56;;;;;;;16.15;10.03;;;;;;;6.40;54.50;97859.64;1776029;80;21441;-71
2021/03/22 07:57:52;;;;;;;13.98;8.83;;;;;;;6.34;51.98;97864.73;1776145;80;21067;-72
2021/03/22 08:00:41;;;;;;;13.00;8.68;;;;;;;5.91;51.66;97862.97;1776132;80;21503;-73
2021/03/22 08:03:44;;;;;;;15.85;8.35;;;;;;;6.89;50.42;97871.59;1776127;80;21087;-72
2021/03/22 08:06:25;;;;;;;16.02;10.90;;;;;;;7.34;51.68;97862.95;1776165;80;21210;-72
2021/03/22 08:09:19;;;;;;;15.90;7.75;;;;;;;9.45;48.81;97861.52;1775812;80;21103;-72
2021/03/22 08:12:06;;;;;;;10.35;6.83;;;;;;;8.73;46.64;97870.33;1776034;80;21139;-72
2021/03/22 08:14:34;;;;;;;17.30;10.95;;;;;;;9.43;48.04;97865.86;1776111;80;21417;-73
2021/03/22 08:17:27;;;;;;;13.73;10.40;;;;;;;8.68;45.68;97867.61;1776463;80;21091;-74
2021/03/22 08:20:16;;;;;;;14.18;7.92;;;;;;;10.03;48.35;97870.72;1734370;80;22252;-72
2021/03/22 08:22:59;;;;;;;12.15;7.60;;;;;;;9.26;42.46;97870.77;1776043;80;21095;-73
2021/03/22 08:25:49;;;;;;;18.50;8.80;;;;;;;6.90;47.97;97868.37;1776118;80;21492;-72
2021/03/22 08:28:24;;;;;;;15.32;8.45;;;;;;;7.65;47.98;97865.80;1776153;80;21083;-72
2021/03/22 08:31:36;;;;;;;17.82;7.85;;;;;;;7.15;49.96;97879.84;1776004;80;21103;-71
2021/03/22 08:34:19;;;;;;;11.30;6.50;;;;;;;6.09;49.30;97872.56;1775917;80;21269;-73
2021/03/22 08:37:07;;;;;;;8.85;5.37;;;;;;;5.62;51.56;97876.58;1775643;79;21103;-72
2021/03/22 08:40:04;;;;;;;19.98;15.55;;;;;;;4.86;51.73;97880.95;1780216;79;21046;-73
2021/03/22 08:42:52;;;;;;;21.00;13.58;;;;;;;5.07;52.35;97878.04;1792787;80;21141;-72
2021/03/22 08:45:24;;;;;;;352.62;211.75;;;;;;;6.46;46.00;97873.43;1791901;79;21093;-72
2021/03/22 08:47:55;;;;;;;111.15;65.55;;;;;;;8.05;49.18;97870.51;1792695;80;21270;-73
2021/03/22 08:50:28;;;;;;;14.63;8.10;;;;;;;9.99;48.02;97864.78;1792566;79;21027;-72
2021/03/22 08:53:11;;;;;;;9.43;6.40;;;;;;;9.98;43.96;97865.33;1792677;80;21090;-72
2021/03/22 08:55:54;;;;;;;10.13;5.97;;;;;;;8.85;45.13;97868.68;1792586;79;21098;-72
2021/03/22 08:58:35;;;;;;;11.03;6.03;;;;;;;8.06;46.51;97874.02;1792641;80;21134;-72
2021/03/22 09:01:25;;;;;;;15.72;8.98;;;;;;;7.34;48.26;97879.12;1785557;80;22073;-72
2021/03/22 09:03:51;;;;;;;14.00;6.03;;;;;;;6.39;48.30;97880.90;1792624;80;21099;-71
2021/03/22 09:06:25;;;;;;;10.53;5.72;;;;;;;4.87;48.82;97889.31;1792605;79;21086;-71
2021/03/22 09:08:57;;;;;;;11.50;5.47;;;;;;;4.20;51.11;97884.73;1792650;80;21070;-73
2021/03/22 09:11:33;;;;;;;15.13;7.33;;;;;;;3.57;52.55;97890.23;1792664;79;21408;-73
2021/03/22 09:14:04;;;;;;;10.15;5.37;;;;;;;2.93;54.54;97888.91;1792799;80;22013;-73
2021/03/22 09:16:38;;;;;;;9.23;5.00;;;;;;;2.99;53.25;97886.64;1785911;80;21118;-73
2021/03/22 09:19:16;;;;;;;12.93;7.65;;;;;;;3.33;52.74;97884.96;1792648;79;21102;-73
2021/03/22 09:22:01;;;;;;;12.43;5.73;;;;;;;3.72;52.71;97884.38;1792920;80;21079;-71
2021/03/22 09:24:43;;;;;;;9.30;5.03;;;;;;;4.06;52.93;97883.41;1792107;79;21194;-72
2021/03/22 09:27:22;;;;;;;6.95;3.45;;;;;;;3.95;51.40;97881.60;1792698;80;21413;-72
2021/03/22 09:30:08;;;;;;;7.67;3.87;;;;;;;3.98;49.00;97882.45;1792672;79;21079;-73
2021/03/22 09:32:40;;;;;;;14.55;5.33;;;;;;;3.95;50.39;97880.27;1792670;80;21090;-72
2021/03/22 09:35:21;;;;;;;8.40;4.47;;;;;;;4.03;50.71;97887.11;1792611;79;21532;-71
2021/03/22 09:38:03;;;;;;;7.03;4.83;;;;;;;3.70;51.85;97888.64;1792732;80;21094;-73
2021/03/22 09:40:35;;;;;;;9.65;5.67;;;;;;;3.70;52.30;97887.83;1792509;79;21338;-71
2021/03/22 09:43:14;;;;;;;11.35;5.65;;;;;;;3.25;52.43;97892.02;1792675;80;21107;-72
2021/03/22 09:46:01;;;;;;;11.18;5.87;;;;;;;3.30;53.46;97892.11;1792730;79;21097;-72
2021/03/22 09:48:37;;;;;;;11.12;5.72;;;;;;;3.21;53.74;97904.77;1792321;80;21122;-73
2021/03/22 09:51:09;;;;;;;13.45;6.60;;;;;;;3.42;54.37;97893.94;1792657;79;21427;-72
2021/03/22 09:54:00;;;;;;;8.48;5.22;;;;;;;3.49;54.56;97887.41;1792623;80;21132;-72
2021/03/22 09:56:33;;;;;;;9.33;5.30;;;;;;;3.66;54.80;97893.64;1792600;79;21141;-72
2021/03/22 09:59:27;;;;;;;10.30;5.08;;;;;;;3.79;54.23;97898.45;1792621;80;21102;-72
2021/03/22 10:01:54;;;;;;;129.00;59.77;;;;;;;3.90;53.66;97896.24;1792571;80;21087;-71
2021/03/22 10:04:29;;;;;;;108.95;52.17;;;;;;;4.24;53.61;97895.78;1792705;79;21495;-72
2021/03/22 10:07:31;;;;;;;26.55;13.78;;;;;;;4.34;53.00;97891.13;1792723;80;22264;-73
2021/03/22 10:12:41;;;;;;;14.60;8.33;;;;;;;3.95;52.71;97890.46;1847693;76;22619;-71
2021/03/22 10:15:25;;;;;;;10.30;6.00;;;;;;;3.87;52.94;97894.05;1803913;78;20964;-72
2021/03/22 10:18:08;;;;;;;13.08;7.12;;;;;;;3.63;51.71;97883.41;1785808;79;21503;-71
2021/03/22 10:20:44;;;;;;;9.50;4.45;;;;;;;3.70;52.77;97878.45;1785885;79;21019;-72
2021/03/22 10:23:32;;;;;;;8.58;4.75;;;;;;;3.85;52.90;97876.06;1785394;80;20988;-72
2021/03/22 10:26:18;;;;;;;9.23;4.97;;;;;;;3.61;51.57;97878.82;1785961;79;21098;-72
2021/03/22 10:28:45;;;;;;;22.00;11.85;;;;;;;3.53;52.48;97877.86;1785934;79;21082;-73
2021/03/22 10:31:22;;;;;;;12.45;7.10;;;;;;;3.82;52.85;97873.31;1785802;79;21199;-71
2021/03/22 10:33:56;;;;;;;10.65;4.40;;;;;;;3.74;51.09;97873.69;1785918;80;21499;-71
2021/03/22 10:36:31;;;;;;;10.80;6.42;;;;;;;3.72;50.97;97879.02;1756896;80;21496;-73
2021/03/22 10:38:57;;;;;;;4.65;2.95;;;;;;;3.86;49.99;97880.36;1785950;80;21082;-72
2021/03/22 10:41:39;;;;;;;5.50;2.40;;;;;;;4.28;45.63;97871.46;1785895;79;21392;-73
2021/03/22 10:44:30;;;;;;;21.85;12.47;;;;;;;4.39;41.80;97871.91;1785831;79;21125;-72
2021/03/22 10:47:06;;;;;;;14.63;6.70;;;;;;;4.69;42.62;97874.25;1785760;80;21110;-72
2021/03/22 10:49:33;;;;;;;5.40;2.17;;;;;;;5.02;45.83;97872.58;1785509;79;21051;-73
2021/03/22 10:52:01;;;;;;;7.62;3.60;;;;;;;4.58;40.77;97865.77;1785804;80;21091;-73
2021/03/22 10:54:44;;;;;;;18.20;13.72;;;;;;;4.62;42.93;97867.45;1785751;79;21195;-73
2021/03/22 10:57:21;;;;;;;5.83;3.70;;;;;;;4.67;42.23;97868.31;1785869;80;21190;-72
2021/03/22 10:59:50;;;;;;;11.33;4.00;;;;;;;3.96;40.14;97865.80;1785776;79;21070;-72
2021/03/22 11:02:36;;;;;;;8.30;5.53;;;;;;;4.15;42.90;97865.87;1785959;80;21050;-72
2021/03/22 11:05:08;;;;;;;24.95;12.10;;;;;;;3.95;40.98;97868.20;1785936;79;21456;-72
2021/03/22 11:07:34;;;;;;;28.25;12.85;;;;;;;3.99;42.47;97875.22;1785862;80;21031;-71
2021/03/22 11:10:05;;;;;;;10.05;5.15;;;;;;;4.08;42.24;97868.41;1785894;79;22019;-71
2021/03/22 11:12:31;;;;;;;3.87;1.75;;;;;;;3.99;41.48;97859.95;1755903;80;21554;-72
2021/03/22 11:15:03;;;;;;;8.95;3.25;;;;;;;4.13;42.19;97860.47;1785808;79;21141;-72
2021/03/22 11:17:30;;;;;;;6.37;2.55;;;;;;;4.42;43.08;97863.89;1785652;80;21519;-72
2021/03/22 11:19:56;;;;;;;9.13;3.33;;;;;;;4.59;39.87;97862.02;1785810;79;21016;-72
2021/03/22 11:22:35;;;;;;;7.62;4.08;;;;;;;4.89;43.25;97863.02;1785614;79;21180;-72
2021/03/22 11:25:23;;;;;;;5.67;2.37;;;;;;;4.90;41.87;97861.14;1785288;79;21477;-73
2021/03/22 11:28:07;;;;;;;6.08;2.67;;;;;;;5.07;41.69;97858.70;1785502;80;20980;-70
2021/03/22 11:30:44;;;;;;;4.55;3.00;;;;;;;5.02;39.17;97852.44;1756492;80;21080;-72
2021/03/22 11:33:18;;;;;;;10.85;4.92;;;;;;;4.91;39.80;97862.77;1780853;80;21091;-72
2021/03/22 11:35:46;;;;;;;4.92;2.35;;;;;;;5.41;40.80;97853.77;1785217;79;21191;-72
2021/03/22 11:38:23;;;;;;;4.03;1.67;;;;;;;5.45;39.57;97849.50;1785215;79;20951;-72
2021/03/22 11:40:49;;;;;;;3.45;1.67;;;;;;;5.26;40.51;97863.78;1784908;79;21123;-72
2021/03/22 11:43:34;;;;;;;7.97;2.47;;;;;;;4.88;39.65;97859.24;1785246;80;21127;-72
2021/03/22 11:46:24;;;;;;;6.72;3.08;;;;;;;4.99;41.80;97863.16;1785264;79;21024;-72
2021/03/22 11:48:50;;;;;;;5.22;2.00;;;;;;;5.08;40.96;97865.70;1785296;80;21939;-72
2021/03/22 11:51:16;;;;;;;6.90;2.17;;;;;;;4.95;38.71;97874.63;1785076;79;21111;-72
2021/03/22 11:54:07;;;;;;;6.70;2.95;;;;;;;4.86;39.61;97870.73;1721308;82;21137;-70
2021/03/22 11:56:37;;;;;;;12.95;4.78;;;;;;;4.71;38.66;97874.84;1735518;82;21047;-72
2021/03/22 11:59:19;;;;;;;11.78;6.87;;;;;;;5.18;40.26;97870.39;1735915;82;21535;-72
2021/03/22 12:01:40;;;;;;;34.40;17.57;;;;;;;4.82;39.71;97871.77;1735179;82;21645;-71
2021/03/22 12:04:11;;;;;;;20.50;10.68;;;;;;;4.65;40.82;97877.16;1735804;82;21575;-72
2021/03/22 12:06:59;;;;;;;5.78;2.25;;;;;;;4.25;40.93;97879.97;1735892;82;21498;-73